createdAt,value
2017-08-05T00:00:42.705Z,8.43
2017-08-05T00:03:12.214Z,6.07
2017-08-05T00:05:41.737Z,6.07
2017-08-05T00:08:11.264Z,8.97
2017-08-05T00:10:40.833Z,10.13
2017-08-05T00:13:10.390Z,11.77
2017-08-05T00:15:40.002Z,8.37
2017-08-05T00:18:09.552Z,12.90
2017-08-05T00:20:39.102Z,7.00
2017-08-05T00:23:08.631Z,7.27
2017-08-05T00:25:38.165Z,8.70
2017-08-05T00:28:07.739Z,19.80
2017-08-05T00:30:37.281Z,9.13
2017-08-05T00:33:06.807Z,11.20
2017-08-05T00:35:36.358Z,17.47
2017-08-05T00:38:05.901Z,13.20
2017-08-05T00:40:35.425Z,9.63
2017-08-05T00:43:04.934Z,10.33
2017-08-05T00:45:34.458Z,7.37
2017-08-05T00:48:03.638Z,10.10
2017-08-05T00:50:33.195Z,8.23
2017-08-05T00:53:02.750Z,7.53
2017-08-05T00:55:32.284Z,4.10
2017-08-05T00:58:01.791Z,6.00
2017-08-05T01:00:31.369Z,10.10
2017-08-05T01:03:00.910Z,11.63
2017-08-05T01:05:30.445Z,13.00
2017-08-05T01:08:01.087Z,8.53
2017-08-05T01:10:30.638Z,10.43
2017-08-05T01:13:00.147Z,9.40
2017-08-05T01:15:29.300Z,8.10
2017-08-05T01:17:58.837Z,10.00
2017-08-05T01:20:28.416Z,17.27
2017-08-05T01:22:57.968Z,13.77
2017-08-05T01:25:27.907Z,15.53
2017-08-05T01:27:57.474Z,10.23
2017-08-05T01:30:27.118Z,9.17
2017-08-05T01:32:56.304Z,15.07
2017-08-05T01:35:25.525Z,10.10
2017-08-05T01:37:55.817Z,14.43
2017-08-05T01:40:25.335Z,10.67
2017-08-05T01:42:54.531Z,6.97
2017-08-05T01:45:23.840Z,21.20
2017-08-05T01:47:52.673Z,11.63
2017-08-05T01:50:21.526Z,11.20
2017-08-05T01:52:50.404Z,5.67
2017-08-05T01:55:19.567Z,12.17
2017-08-05T01:57:48.765Z,7.60
2017-08-05T02:00:17.612Z,7.00
2017-08-05T02:02:47.249Z,17.53
2017-08-05T02:05:16.423Z,7.93
2017-08-05T02:07:45.288Z,11.67
2017-08-05T02:10:14.286Z,12.07
2017-08-05T02:12:43.812Z,7.90
2017-08-05T02:15:14.106Z,3.97
2017-08-05T02:17:43.628Z,6.20
2017-08-05T02:20:13.165Z,8.33
2017-08-05T02:22:43.462Z,13.10
2017-08-05T02:25:12.993Z,7.30
2017-08-05T02:27:43.278Z,8.97
2017-08-05T02:30:12.824Z,10.00
2017-08-05T02:32:42.336Z,10.93
2017-08-05T02:35:12.206Z,10.37
2017-08-05T02:37:41.845Z,6.03
2017-08-05T02:40:11.887Z,6.43
2017-08-05T02:42:41.449Z,17.27
2017-08-05T02:45:10.996Z,14.03
2017-08-05T02:47:40.545Z,6.43
2017-08-05T02:50:10.094Z,8.50
2017-08-05T02:52:40.391Z,6.37
2017-08-05T02:55:09.972Z,15.97
2017-08-05T02:57:39.519Z,11.70
2017-08-05T03:00:09.449Z,5.80
2017-08-05T03:02:39.762Z,14.90
2017-08-05T03:05:10.069Z,9.30
2017-08-05T03:07:39.626Z,7.80
2017-08-05T03:10:09.144Z,8.40
2017-08-05T03:12:38.672Z,5.73
2017-08-05T03:15:07.845Z,5.67
2017-08-05T03:17:37.367Z,10.77
2017-08-05T03:20:06.918Z,9.03
2017-08-05T03:22:37.202Z,11.23
2017-08-05T03:25:06.840Z,9.97
2017-08-05T03:27:36.373Z,7.83
2017-08-05T03:30:05.982Z,10.43
2017-08-05T03:32:35.556Z,13.07
2017-08-05T03:35:05.057Z,5.33
2017-08-05T03:37:34.977Z,10.53
2017-08-05T03:40:04.641Z,10.60
2017-08-05T03:42:34.182Z,12.17
2017-08-05T03:45:03.746Z,3.70
2017-08-05T03:47:33.276Z,6.80
2017-08-05T03:50:02.805Z,6.67
2017-08-05T03:52:32.353Z,10.00
2017-08-05T03:55:01.916Z,10.57
2017-08-05T03:57:31.118Z,13.30
2017-08-05T04:00:00.675Z,8.20
2017-08-05T04:02:30.199Z,21.90
2017-08-05T04:04:59.746Z,11.57
2017-08-05T04:07:29.271Z,11.33
2017-08-05T04:09:59.589Z,13.83
2017-08-05T04:12:29.880Z,7.07
2017-08-05T04:14:59.452Z,10.33
2017-08-05T04:17:28.972Z,7.00
2017-08-05T04:19:58.535Z,7.80
2017-08-05T04:22:28.825Z,9.93
2017-08-05T04:24:58.356Z,8.10
2017-08-05T04:27:27.555Z,5.93
2017-08-05T04:29:57.064Z,5.50
2017-08-05T04:32:26.598Z,5.30
2017-08-05T04:34:56.168Z,7.10
2017-08-05T04:37:25.715Z,5.73
2017-08-05T04:39:55.238Z,5.50
2017-08-05T04:42:24.758Z,7.03
2017-08-05T04:44:54.351Z,5.27
2017-08-05T04:47:23.869Z,8.03
2017-08-05T04:49:53.412Z,6.87
2017-08-05T04:52:22.930Z,8.37
2017-08-05T04:54:53.232Z,11.73
2017-08-05T04:57:22.761Z,6.73
2017-08-05T04:59:53.058Z,6.17
2017-08-05T05:02:22.612Z,10.80
2017-08-05T05:04:52.126Z,6.80
2017-08-05T05:07:21.652Z,11.90
2017-08-05T05:09:51.186Z,10.03
2017-08-05T05:12:20.726Z,15.60
2017-08-05T05:14:51.041Z,8.10
2017-08-05T05:17:21.318Z,11.13
2017-08-05T05:19:50.846Z,12.10
2017-08-05T05:22:20.371Z,9.50
2017-08-05T05:24:50.760Z,17.70
2017-08-05T05:27:20.290Z,7.97
2017-08-05T05:29:49.827Z,13.70
2017-08-05T05:32:19.967Z,7.70
2017-08-05T05:34:49.509Z,12.23
2017-08-05T05:37:19.072Z,6.50
2017-08-05T05:39:48.587Z,10.53
2017-08-05T05:42:18.171Z,11.00
2017-08-05T05:44:48.453Z,9.00
2017-08-05T05:47:17.972Z,3.80
2017-08-05T05:49:47.593Z,4.67
2017-08-05T05:52:17.889Z,8.53
2017-08-05T05:54:47.620Z,11.13
2017-08-05T05:57:17.144Z,12.77
2017-08-05T05:59:47.467Z,11.27
2017-08-05T06:02:17.755Z,12.43
2017-08-05T06:04:47.283Z,10.30
2017-08-05T06:07:16.811Z,11.30
2017-08-05T06:09:47.134Z,12.83
2017-08-05T06:12:17.078Z,11.13
2017-08-05T06:14:46.719Z,13.27
2017-08-05T06:17:16.325Z,11.37
2017-08-05T06:19:45.730Z,14.50
2017-08-05T06:22:15.247Z,3.20
2017-08-05T06:24:44.783Z,7.70
2017-08-05T06:27:15.196Z,7.53
2017-08-05T06:29:45.548Z,5.63
2017-08-05T06:32:15.100Z,7.63
2017-08-05T06:34:44.619Z,7.00
2017-08-05T06:37:14.147Z,7.13
2017-08-05T06:39:44.458Z,5.30
2017-08-05T06:42:13.999Z,3.93
2017-08-05T06:44:43.533Z,2.30
2017-08-05T06:47:13.071Z,9.83
2017-08-05T06:49:42.578Z,7.60
2017-08-05T06:52:12.117Z,7.57
2017-08-05T06:54:41.673Z,4.97
2017-08-05T06:57:11.176Z,7.93
2017-08-05T06:59:40.707Z,7.00
2017-08-05T07:02:10.208Z,6.90
2017-08-05T07:04:39.728Z,6.67
2017-08-05T07:07:10.125Z,3.40
2017-08-05T07:09:39.630Z,5.50
2017-08-05T07:12:09.184Z,6.73
2017-08-05T07:14:39.457Z,5.67
2017-08-05T07:17:09.054Z,4.87
2017-08-05T07:19:38.602Z,4.70
2017-08-05T07:22:08.909Z,8.20
2017-08-05T07:24:38.461Z,5.80
2017-08-05T07:27:07.980Z,2.73
2017-08-05T07:29:37.525Z,2.30
2017-08-05T07:32:07.088Z,3.23
2017-08-05T07:34:36.632Z,4.90
2017-08-05T07:37:06.157Z,4.43
2017-08-05T07:39:35.693Z,1.27
2017-08-05T07:42:05.239Z,3.80
2017-08-05T07:44:34.764Z,4.50
2017-08-05T07:47:04.311Z,4.80
2017-08-05T07:49:33.825Z,7.43
2017-08-05T07:52:03.398Z,3.30
2017-08-05T07:54:33.741Z,5.67
2017-08-05T07:57:04.139Z,4.83
2017-08-05T07:59:33.670Z,8.10
2017-08-05T08:02:03.974Z,3.53
2017-08-05T08:04:33.620Z,2.23
2017-08-05T08:07:03.176Z,5.07
2017-08-05T08:09:32.703Z,3.20
2017-08-05T08:12:02.258Z,5.63
2017-08-05T08:14:31.794Z,2.70
2017-08-05T08:17:01.310Z,3.40
2017-08-05T08:19:30.834Z,5.57
2017-08-05T08:22:00.418Z,4.63
2017-08-05T08:24:29.935Z,10.33
2017-08-05T08:27:00.162Z,5.90
2017-08-05T08:29:29.691Z,2.13
2017-08-05T08:31:59.988Z,2.20
2017-08-05T08:34:30.320Z,3.23
2017-08-05T08:36:59.874Z,3.47
2017-08-05T08:39:29.044Z,1.37
2017-08-05T08:41:59.356Z,6.10
2017-08-05T08:44:28.886Z,2.07
2017-08-05T08:46:58.445Z,2.20
2017-08-05T08:49:28.057Z,5.47
2017-08-05T08:51:57.581Z,4.00
2017-08-05T08:54:27.106Z,8.33
2017-08-05T08:56:57.391Z,5.53
2017-08-05T08:59:26.932Z,1.67
2017-08-05T09:01:57.240Z,4.80
2017-08-05T09:04:26.766Z,3.40
2017-08-05T09:06:56.294Z,3.40
2017-08-05T09:09:25.843Z,6.00
2017-08-05T09:11:55.345Z,3.73
2017-08-05T09:14:24.873Z,2.60
2017-08-05T09:16:55.175Z,1.57
2017-08-05T09:19:24.694Z,3.07
2017-08-05T09:21:54.260Z,10.10
2017-08-05T09:24:23.779Z,6.00
2017-08-05T09:26:53.293Z,2.53
2017-08-05T09:29:22.864Z,3.60
2017-08-05T09:31:52.411Z,2.37
2017-08-05T09:34:21.943Z,1.87
2017-08-05T09:36:51.489Z,2.33
2017-08-05T09:39:21.024Z,2.50
2017-08-05T09:41:50.573Z,5.23
2017-08-05T09:44:21.251Z,2.53
2017-08-05T09:46:50.761Z,4.30
2017-08-05T09:49:20.305Z,5.20
2017-08-05T09:51:49.819Z,2.30
2017-08-05T09:54:20.119Z,2.17
2017-08-05T09:56:49.662Z,2.87
2017-08-05T09:59:19.201Z,2.47
2017-08-05T10:01:48.855Z,1.10
2017-08-05T10:04:18.388Z,1.90
2017-08-05T10:06:47.964Z,3.03
2017-08-05T10:09:17.485Z,4.30
2017-08-05T10:11:47.815Z,1.27
2017-08-05T10:14:18.106Z,0.80
2017-08-05T10:16:47.661Z,1.17
2017-08-05T10:19:17.183Z,1.20
2017-08-05T10:21:46.845Z,2.80
2017-08-05T10:24:16.670Z,2.40
2017-08-05T10:26:46.978Z,1.63
2017-08-05T10:29:16.501Z,1.83
2017-08-05T10:31:46.819Z,7.10
2017-08-05T10:34:16.340Z,1.63
2017-08-05T10:36:46.651Z,1.73
2017-08-05T10:39:16.949Z,2.10
2017-08-05T10:41:46.485Z,2.40
2017-08-05T10:44:16.812Z,2.30
2017-08-05T10:46:47.125Z,2.50
2017-08-05T10:49:16.749Z,4.67
2017-08-05T10:51:47.055Z,7.83
2017-08-05T10:54:16.591Z,3.10
2017-08-05T10:56:46.155Z,4.20
2017-08-05T10:59:15.717Z,3.33
2017-08-05T11:01:45.309Z,2.70
2017-08-05T11:04:14.847Z,3.27
2017-08-05T11:06:44.393Z,6.97
2017-08-05T11:09:13.699Z,1.57
2017-08-05T11:11:43.223Z,4.30
2017-08-05T11:14:13.523Z,1.80
2017-08-05T11:16:43.090Z,2.40
2017-08-05T11:19:12.638Z,2.10
2017-08-05T11:21:42.181Z,1.60
2017-08-05T11:24:11.754Z,5.13
2017-08-05T11:26:41.728Z,2.97
2017-08-05T11:29:11.282Z,3.00
2017-08-05T11:31:41.580Z,0.90
2017-08-05T11:34:11.197Z,4.87
2017-08-05T11:36:40.772Z,3.07
2017-08-05T11:39:10.469Z,3.33
2017-08-05T11:41:40.034Z,3.93
2017-08-05T11:44:09.581Z,4.37
2017-08-05T11:46:39.711Z,4.10
2017-08-05T11:49:09.261Z,1.00
2017-08-05T11:51:38.797Z,4.70
2017-08-05T11:54:09.129Z,1.90
2017-08-05T11:56:38.681Z,1.07
2017-08-05T11:59:08.237Z,0.90
2017-08-05T12:01:38.534Z,1.30
2017-08-05T12:04:08.069Z,1.57
2017-08-05T12:06:38.383Z,2.40
2017-08-05T12:09:08.655Z,3.43
2017-08-05T12:11:38.212Z,1.43
2017-08-05T12:14:08.514Z,2.43
2017-08-05T12:16:38.060Z,3.73
2017-08-05T12:19:07.653Z,0.90
2017-08-05T12:21:37.234Z,0.80
2017-08-05T12:24:06.810Z,1.63
2017-08-05T12:26:36.336Z,2.10
2017-08-05T12:29:05.918Z,1.70
2017-08-05T12:31:35.441Z,2.20
2017-08-05T12:34:04.969Z,1.53
2017-08-05T12:36:34.501Z,2.07
2017-08-05T12:39:04.047Z,1.27
2017-08-05T12:41:33.649Z,1.03
2017-08-05T12:44:03.262Z,3.57
2017-08-05T12:46:32.798Z,2.03
2017-08-05T12:49:02.368Z,1.97
2017-08-05T12:51:31.990Z,5.77
2017-08-05T12:54:01.551Z,3.57
2017-08-05T12:56:31.112Z,2.23
2017-08-05T12:59:00.659Z,2.53
2017-08-05T13:01:30.225Z,3.23
2017-08-05T13:03:59.747Z,3.83
2017-08-05T13:06:29.281Z,2.77
2017-08-05T13:08:59.577Z,1.83
2017-08-05T13:11:29.119Z,2.50
2017-08-05T13:13:58.668Z,3.33
2017-08-05T13:16:28.202Z,2.00
2017-08-05T13:18:57.744Z,6.17
2017-08-05T13:21:27.302Z,2.00
2017-08-05T13:23:56.875Z,2.00
2017-08-05T13:26:26.416Z,4.80
2017-08-05T13:28:55.972Z,3.87
2017-08-05T13:31:26.295Z,2.03
2017-08-05T13:33:56.618Z,3.80
2017-08-05T13:36:26.574Z,2.00
2017-08-05T13:38:56.117Z,2.23
2017-08-05T13:41:25.649Z,1.33
2017-08-05T13:43:55.940Z,1.53
2017-08-05T13:46:26.446Z,1.63
2017-08-05T13:48:56.342Z,3.83
2017-08-05T13:51:26.822Z,1.90
2017-08-05T13:53:56.441Z,2.83
2017-08-05T13:56:25.971Z,3.43
2017-08-05T13:58:55.521Z,2.50
2017-08-05T14:01:25.054Z,2.77
2017-08-05T14:03:54.721Z,3.27
2017-08-05T14:06:23.904Z,1.70
2017-08-05T14:08:53.423Z,2.40
2017-08-05T14:11:22.960Z,3.20
2017-08-05T14:13:52.514Z,2.73
2017-08-05T14:16:22.079Z,1.53
2017-08-05T14:18:51.621Z,1.53
2017-08-05T14:21:21.960Z,1.80
2017-08-05T14:23:51.528Z,3.90
2017-08-05T14:26:21.046Z,1.73
2017-08-05T14:28:51.393Z,1.87
2017-08-05T14:31:20.953Z,6.77
2017-08-05T14:33:50.481Z,2.97
2017-08-05T14:36:20.792Z,1.80
2017-08-05T14:38:50.324Z,2.67
2017-08-05T14:41:19.900Z,2.33
2017-08-05T14:43:50.295Z,3.07
2017-08-05T14:46:21.022Z,1.20
2017-08-05T14:48:50.685Z,3.37
2017-08-05T14:51:21.150Z,1.60
2017-08-05T14:53:50.716Z,1.97
2017-08-05T14:56:20.253Z,3.83
2017-08-05T14:58:49.919Z,3.73
2017-08-05T15:01:19.505Z,7.60
2017-08-05T15:03:49.051Z,3.43
2017-08-05T15:06:18.648Z,1.50
2017-08-05T15:08:48.532Z,1.37
2017-08-05T15:11:18.060Z,2.17
2017-08-05T15:13:47.750Z,1.17
2017-08-05T15:16:17.260Z,3.63
2017-08-05T15:18:46.824Z,2.73
2017-08-05T15:21:16.372Z,3.00
2017-08-05T15:23:45.920Z,5.30
2017-08-05T15:26:16.369Z,9.50
2017-08-05T15:28:46.027Z,1.40
2017-08-05T15:31:15.732Z,1.90
2017-08-05T15:33:45.324Z,2.03
2017-08-05T15:36:15.497Z,2.60
2017-08-05T15:38:45.808Z,2.93
2017-08-05T15:41:16.179Z,3.00
2017-08-05T15:43:46.061Z,10.07
2017-08-05T15:46:15.619Z,3.97
2017-08-05T15:48:45.200Z,6.87
2017-08-05T15:51:14.705Z,1.23
2017-08-05T15:53:44.225Z,3.50
2017-08-05T15:56:13.758Z,8.03
2017-08-05T15:58:43.331Z,3.23
2017-08-05T16:01:12.501Z,6.33
2017-08-05T16:03:42.795Z,3.80
2017-08-05T16:06:12.373Z,6.93
2017-08-05T16:08:41.891Z,5.80
2017-08-05T16:11:11.419Z,9.13
2017-08-05T16:13:40.983Z,6.53
2017-08-05T16:16:10.540Z,9.37
2017-08-05T16:18:40.096Z,9.30
2017-08-05T16:21:09.300Z,9.33
2017-08-05T16:23:38.829Z,12.10
2017-08-05T16:26:08.414Z,7.00
2017-08-05T16:28:37.972Z,6.20
2017-08-05T16:31:07.559Z,9.13
2017-08-05T16:33:37.076Z,5.40
2017-08-05T16:36:06.638Z,4.80
2017-08-05T16:38:36.191Z,6.23
2017-08-05T16:41:05.805Z,4.00
2017-08-05T16:43:36.160Z,5.63
2017-08-05T16:46:05.753Z,8.73
2017-08-05T16:48:36.078Z,9.60
2017-08-05T16:51:06.401Z,6.73
2017-08-05T16:53:36.752Z,2.27
2017-08-05T16:56:05.935Z,4.50
2017-08-05T16:58:40.389Z,5.60
2017-08-05T17:01:09.919Z,3.50
2017-08-05T17:03:39.465Z,6.63
2017-08-05T17:06:12.615Z,8.63
2017-08-05T17:08:42.909Z,4.40
2017-08-05T17:11:12.450Z,8.20
2017-08-05T17:13:41.961Z,5.83
2017-08-05T17:16:11.508Z,10.63
2017-08-05T17:18:41.826Z,8.03
2017-08-05T17:21:12.169Z,5.20
2017-08-05T17:23:41.727Z,9.23
2017-08-05T17:26:11.252Z,7.80
2017-08-05T17:28:40.767Z,3.80
2017-08-05T17:31:11.089Z,6.10
2017-08-05T17:33:40.646Z,6.93
2017-08-05T17:36:12.197Z,8.17
2017-08-05T17:38:41.890Z,5.80
2017-08-05T17:41:12.130Z,9.47
2017-08-05T17:43:41.644Z,11.20
2017-08-05T17:46:11.177Z,7.80
2017-08-05T17:48:40.769Z,4.67
2017-08-05T17:51:10.370Z,8.03
2017-08-05T17:53:39.885Z,5.90
2017-08-05T17:56:09.446Z,5.97
2017-08-05T17:58:38.992Z,6.27
2017-08-05T18:01:08.527Z,7.97
2017-08-05T18:03:38.089Z,9.10
2017-08-05T18:06:07.661Z,8.40
2017-08-05T18:08:39.913Z,7.63
2017-08-05T18:11:09.486Z,5.60
2017-08-05T18:13:39.014Z,7.80
2017-08-05T18:16:08.562Z,10.90
2017-08-05T18:18:38.118Z,8.00
2017-08-05T18:21:07.675Z,12.43
2017-08-05T18:23:38.119Z,9.83
2017-08-05T18:26:07.650Z,5.03
2017-08-05T18:28:37.185Z,7.30
2017-08-05T18:31:06.719Z,5.50
2017-08-05T18:33:36.258Z,9.53
2017-08-05T18:36:05.488Z,10.67
2017-08-05T18:38:35.830Z,10.53
2017-08-05T18:41:06.152Z,7.23
2017-08-05T18:43:35.679Z,8.53
2017-08-05T18:46:05.236Z,8.70
2017-08-05T18:48:34.819Z,6.00
2017-08-05T18:51:04.349Z,8.13
2017-08-05T18:53:33.888Z,4.87
2017-08-05T18:56:04.210Z,14.90
2017-08-05T18:58:33.735Z,6.50
2017-08-05T19:01:03.284Z,12.77
2017-08-05T19:03:32.810Z,11.10
2017-08-05T19:06:02.328Z,12.10
2017-08-05T19:08:32.626Z,5.20
2017-08-05T19:11:02.141Z,6.77
2017-08-05T19:13:31.758Z,6.03
2017-08-05T19:16:01.358Z,16.17
2017-08-05T19:18:30.884Z,6.53
2017-08-05T19:21:00.431Z,6.33
2017-08-05T19:23:29.996Z,12.37
2017-08-05T19:25:59.507Z,16.00
2017-08-05T19:28:29.103Z,8.83
2017-08-05T19:30:58.681Z,7.83
2017-08-05T19:33:27.855Z,15.30
2017-08-05T19:35:57.386Z,16.03
2017-08-05T19:38:26.996Z,9.73
2017-08-05T19:40:56.554Z,9.33
2017-08-05T19:43:27.697Z,10.13
2017-08-05T19:45:57.987Z,10.03
2017-08-05T19:48:27.530Z,8.07
2017-08-05T19:50:57.887Z,16.97
2017-08-05T19:53:27.468Z,13.47
2017-08-05T19:55:57.762Z,10.00
2017-08-05T19:58:27.353Z,7.53
2017-08-05T20:00:56.893Z,7.73
2017-08-05T20:03:26.444Z,18.23
2017-08-05T20:05:55.962Z,18.57
2017-08-05T20:08:25.520Z,13.53
2017-08-05T20:10:55.774Z,17.63
2017-08-05T20:13:25.342Z,37.43
2017-08-05T20:15:55.668Z,42.03
2017-08-05T20:18:26.210Z,28.23
2017-08-05T20:20:56.529Z,24.87
2017-08-05T20:23:26.934Z,20.20
2017-08-05T20:25:56.538Z,22.03
2017-08-05T20:28:26.080Z,14.03
2017-08-05T20:30:55.647Z,15.90
2017-08-05T20:33:25.191Z,11.60
2017-08-05T20:35:54.785Z,22.10
2017-08-05T20:38:25.145Z,32.00
2017-08-05T20:40:54.738Z,31.73
2017-08-05T20:43:24.266Z,42.50
2017-08-05T20:45:53.500Z,54.87
2017-08-05T20:48:23.050Z,52.13
2017-08-05T20:50:52.579Z,40.37
2017-08-05T20:53:22.131Z,42.73
2017-08-05T20:55:51.691Z,29.13
2017-08-05T20:58:21.224Z,32.23
2017-08-05T21:00:50.774Z,39.67
2017-08-05T21:03:21.185Z,31.57
2017-08-05T21:05:51.511Z,23.87
2017-08-05T21:08:21.045Z,28.20
2017-08-05T21:10:50.616Z,21.20
2017-08-05T21:13:20.846Z,21.83
2017-08-05T21:15:50.382Z,18.40
2017-08-05T21:18:19.951Z,19.50
2017-08-05T21:20:49.327Z,16.80
2017-08-05T21:23:18.866Z,19.53
2017-08-05T21:25:48.405Z,15.33
2017-08-05T21:28:17.951Z,14.00
2017-08-05T21:30:47.485Z,13.00
2017-08-05T21:33:17.066Z,13.27
2017-08-05T21:35:46.588Z,16.07
2017-08-05T21:38:16.112Z,11.27
2017-08-05T21:40:46.917Z,12.17
2017-08-05T21:43:16.437Z,16.50
2017-08-05T21:45:46.066Z,14.83
2017-08-05T21:48:16.355Z,12.33
2017-08-05T21:50:45.887Z,12.20
2017-08-05T21:53:15.490Z,10.23
2017-08-05T21:55:44.787Z,11.27
2017-08-05T21:58:14.317Z,10.77
2017-08-05T22:03:21.393Z,11.07
2017-08-05T22:05:50.584Z,10.17
2017-08-05T22:08:20.113Z,14.93
2017-08-05T22:10:50.411Z,11.07
2017-08-05T22:13:19.932Z,8.73
2017-08-05T22:15:49.484Z,10.00
2017-08-05T22:18:19.010Z,7.60
2017-08-05T22:20:48.603Z,11.30
2017-08-05T22:23:18.158Z,11.93
2017-08-05T22:25:47.692Z,16.37
2017-08-05T22:28:18.010Z,15.30
2017-08-05T22:30:48.438Z,13.73
2017-08-05T22:33:18.770Z,15.40
2017-08-05T22:35:48.368Z,8.03
2017-08-05T22:38:18.687Z,17.00
2017-08-05T22:40:49.871Z,13.90
2017-08-05T22:43:19.406Z,14.63
2017-08-05T22:45:49.002Z,13.87
2017-08-05T22:48:18.545Z,15.10
2017-08-05T22:50:48.115Z,13.20
2017-08-05T22:53:17.630Z,13.10
2017-08-05T22:55:47.166Z,13.67
2017-08-05T22:58:16.700Z,9.00
2017-08-05T23:00:45.940Z,13.30
2017-08-05T23:03:15.461Z,13.40
2017-08-05T23:05:44.639Z,11.07
2017-08-05T23:08:14.210Z,12.10
2017-08-05T23:10:43.766Z,15.70
2017-08-05T23:13:13.329Z,12.20
2017-08-05T23:15:42.849Z,12.37
2017-08-05T23:18:12.418Z,10.90
2017-08-05T23:20:42.739Z,16.20
2017-08-05T23:23:12.241Z,13.03
2017-08-05T23:25:41.813Z,13.40
2017-08-05T23:28:11.391Z,12.97
2017-08-05T23:30:40.917Z,19.93
2017-08-05T23:33:10.472Z,12.30
2017-08-05T23:35:40.776Z,13.60
2017-08-05T23:38:10.316Z,6.00
2017-08-05T23:40:40.635Z,12.60
2017-08-05T23:43:10.994Z,14.30
2017-08-05T23:45:40.523Z,10.50
2017-08-05T23:48:10.087Z,13.50
2017-08-05T23:50:39.604Z,9.23
2017-08-05T23:53:09.142Z,12.37
2017-08-05T23:55:38.694Z,13.90
2017-08-05T23:58:08.983Z,10.77
